Boudicca — C6VA3 — position and weather

sailwx.info

Track history (hours):
 
Tides and Currents Weather Stations Pressure Air Temp Water Temp Dewpoint Dewpoint Depression Visibility Wind Speed Wind Dir Waves Ship Positions

Boudicca

Last reported at 2017-Oct-19 14:23 UTC. Time now 2017-Oct-20 01:19 UTC.
Position N 37°27' W 000°20'.

Length 205 m; draft 7.4 m.

Type: Passenger vessel. MMSI: 309964000.

Date/timePositionNaut miles runAvg speedWind from/ knotsBaromVisibWave heightAir tempDewpointWater temp
2017-Oct-19 14:23N 37°27' W 000°20'23415.3
2017-Oct-18 23:02N 36°02' W 004°52'418.5
2017-Oct-18 22:50N 36°02' W 004°57'618.1
2017-Oct-18 22:30N 36°01' W 005°04'1019.8
2017-Oct-18 22:00N 35°60' W 005°17'1019.3
2017-Oct-18 21:30N 35°57' W 005°28'250 7.6
2017-Oct-17 12:34N 38°07' W 009°56'716.0
2017-Oct-17 12:09N 38°13' W 009°58'215.9
2017-Oct-17 12:00N 38°16' W 009°59'816.4
2017-Oct-17 11:30N 38°24' W 010°01'816.4
2017-Oct-17 11:00N 38°32' W 010°03'816.0
2017-Oct-17 10:31N 38°39' W 010°06'816.3
2017-Oct-17 10:00N 38°48' W 010°07'816.0
2017-Oct-17 09:31N 38°56' W 010°08'48814.2
2017-Oct-15 23:06N 46°48' W 007°21'116.3
2017-Oct-15 23:01N 46°50' W 007°21'916.0
2017-Oct-15 22:27N 46°59' W 007°19'715.6
2017-Oct-15 22:00N 47°05' W 007°18'815.7
2017-Oct-15 21:30N 47°13' W 007°17'816.1
2017-Oct-15 21:00N 47°21' W 007°15'1216.2
2017-Oct-15 20:15N 47°33' W 007°11'415.9
2017-Oct-15 19:59N 47°37' W 007°09'15316.0
2017-Oct-15 10:26N 50°09' W 006°41'715.9
2017-Oct-15 10:00N 50°16' W 006°38'3316.3
2017-Oct-15 07:59N 50°47' W 006°23'816.5
2017-Oct-15 07:30N 50°55' W 006°19'816.6
2017-Oct-15 07:00N 51°03' W 006°16'4915.8
2017-Oct-15 03:54N 51°49' W 005°53'614.7
2017-Oct-15 03:30N 51°55' W 005°50'714.5
2017-Oct-15 03:00N 52°02' W 005°46'714.7
2017-Oct-15 02:30N 52°09' W 005°42'714.9
2017-Oct-15 02:00N 52°16' W 005°38'815.5
2017-Oct-15 01:29N 52°23' W 005°33'7117.3
2017-Oct-14 21:22N 53°29' W 004°49'817.1
2017-Oct-14 20:55N 53°34' W 004°38'917.7
2017-Oct-14 20:23N 53°34' W 004°23'717.5
2017-Oct-14 19:59N 53°33' W 004°11'817.1
2017-Oct-14 19:30N 53°33' W 003°57'816.7
2017-Oct-14 19:00N 53°33' W 003°43'816.6
2017-Oct-14 18:30N 53°33' W 003°29'815.4
2017-Oct-14 18:00N 53°32' W 003°16'613.0
2017-Oct-14 17:30N 53°30' W 003°06'611.3
2017-Oct-14 17:00N 53°25' W 003°01'1 1.1
2017-Oct-14 16:21N 53°25' W 003°00'0 0.0
2017-Oct-14 16:00N 53°25' W 003°00'0 0.0
2017-Oct-14 15:30N 53°25' W 003°00'0 0.0
2017-Oct-14 14:57N 53°25' W 003°00'0 0.0
2017-Oct-14 14:30N 53°25' W 003°00'0 0.0
2017-Oct-14 14:00N 53°25' W 003°00'0 0.0
2017-Oct-14 13:30N 53°25' W 003°00'0 0.0
2017-Oct-14 13:00N 53°25' W 003°00'0 0.0
2017-Oct-14 12:24N 53°25' W 003°00'0 0.0
2017-Oct-14 12:00N 53°25' W 003°00'0 0.0
2017-Oct-14 11:27N 53°25' W 003°00'0 0.0
2017-Oct-14 11:00N 53°25' W 003°00'0 0.0
2017-Oct-14 10:30N 53°25' W 003°00'0 0.0
2017-Oct-14 10:00N 53°25' W 003°00'0 0.0
2017-Oct-14 09:30N 53°25' W 003°00'0 0.0
2017-Oct-14 09:00N 53°25' W 003°00'0 0.0
2017-Oct-14 08:30N 53°25' W 003°00'0 0.0
2017-Oct-14 08:00N 53°25' W 003°00'0 0.0
2017-Oct-14 07:30N 53°25' W 003°00'0 0.0
2017-Oct-14 07:00N 53°25' W 003°00'0 0.0
2017-Oct-14 06:30N 53°25' W 003°00'0 0.0
2017-Oct-14 06:00N 53°25' W 003°00'0 0.0
2017-Oct-14 05:30N 53°25' W 003°00'0 0.0
2017-Oct-14 05:00N 53°25' W 003°00'0 0.5
2017-Oct-14 04:30N 53°24' W 003°00'510.1
2017-Oct-14 04:00N 53°29' W 003°04'510.7
2017-Oct-14 03:31N 53°31' W 003°12'510.2
2017-Oct-14 03:00N 53°31' W 003°21'714.2
2017-Oct-14 02:30N 53°31' W 003°33'816.7
2017-Oct-14 02:00N 53°31' W 003°47'918.0
2017-Oct-14 01:30N 53°30' W 004°02'9614.4
2017-Oct-13 18:51N 52°12' W 005°33'9713.5
2017-Oct-13 11:42N 50°40' W 006°20'712.4
2017-Oct-13 11:11N 50°34' W 006°23'3813.1
2017-Oct-13 08:17N 49°57' W 006°39'513.4
2017-Oct-13 07:53N 49°52' W 006°42'52213.9
2017-Oct-11 18:21N 41°18' W 008°52'616.7
2017-Oct-11 18:00N 41°13' W 008°49'611.2
2017-Oct-11 17:31N 41°11' W 008°42'0 0.9
2017-Oct-11 16:58N 41°11' W 008°42'152 9.0
2017-Oct-11 00:00N 39°11' W 010°44'713.5
2017-Oct-10 23:30N 39°05' W 010°44'713.1
2017-Oct-10 23:00N 38°59' W 010°48'713.2
2017-Oct-10 22:30N 38°54' W 010°53'713.6
2017-Oct-10 22:00N 38°48' W 010°58'713.9
2017-Oct-10 21:31N 38°43' W 011°04'815.8
2017-Oct-10 21:00N 38°36' W 011°10'917.3
2017-Oct-10 20:30N 38°29' W 011°16'917.3
2017-Oct-10 20:00N 38°22' W 011°23'917.1
2017-Oct-10 19:30N 38°15' W 011°29'817.0
2017-Oct-10 19:00N 38°09' W 011°36'917.3
2017-Oct-10 18:30N 38°02' W 011°42'817.0
2017-Oct-10 18:00N 37°55' W 011°48'816.5
2017-Oct-10 17:30N 37°48' W 011°55'816.5
2017-Oct-10 17:00N 37°41' W 012°01'816.5
2017-Oct-10 16:30N 37°35' W 012°07'816.1
2017-Oct-10 16:00N 37°28' W 012°13'815.9
2017-Oct-10 15:30N 37°22' W 012°19'816.0
2017-Oct-10 15:00N 37°15' W 012°25'1616.5
2017-Oct-10 14:00N 37°02' W 012°37'816.4
2017-Oct-10 13:30N 36°56' W 012°43'816.0
2017-Oct-10 13:00N 36°49' W 012°49'815.9
2017-Oct-10 12:30N 36°43' W 012°55'816.3
2017-Oct-10 12:00N 36°36' W 013°01'816.2
2017-Oct-10 11:30N 36°30' W 013°07'815.9
2017-Oct-10 11:00N 36°23' W 013°13'816.1
2017-Oct-10 10:30N 36°17' W 013°19'816.0
2017-Oct-10 10:00N 36°10' W 013°25'816.0
2017-Oct-10 09:30N 36°04' W 013°31'816.0
2017-Oct-10 09:00N 35°57' W 013°37'816.4
2017-Oct-10 08:30N 35°51' W 013°42'815.6
2017-Oct-10 08:00N 35°44' W 013°48'714.5
2017-Oct-10 07:30N 35°39' W 013°53'815.3
2017-Oct-10 07:01N 35°32' W 013°59'816.6
2017-Oct-10 06:30N 35°26' W 014°05'816.8
2017-Oct-10 06:01N 35°19' W 014°11'816.9
2017-Oct-10 05:31N 35°12' W 014°17'917.1
2017-Oct-10 04:58N 35°05' W 014°24'1117.0
2017-Oct-10 04:18N 34°55' W 014°32'  
Track history (hours):
 
Tides and Currents Weather Stations Pressure Air Temp Water Temp Dewpoint Dewpoint Depression Visibility Wind Speed Wind Dir Waves Ship Positions

Boudicca

Last reported at 2017-Oct-19 14:23 UTC. Time now 2017-Oct-20 01:19 UTC.
Position N 37°27' W 000°20'.

Length 205 m; draft 7.4 m.

Type: Passenger vessel. MMSI: 309964000.

Date/timePositionNaut miles runAvg speedWind from/ knotsBaromVisibWave heightAir tempDewpointWater temp
2017-Oct-19 14:23N 37°27' W 000°20'23415.3
2017-Oct-18 23:02N 36°02' W 004°52'418.5
2017-Oct-18 22:50N 36°02' W 004°57'618.1
2017-Oct-18 22:30N 36°01' W 005°04'1019.8
2017-Oct-18 22:00N 35°60' W 005°17'1019.3
2017-Oct-18 21:30N 35°57' W 005°28'250 7.6
2017-Oct-17 12:34N 38°07' W 009°56'716.0
2017-Oct-17 12:09N 38°13' W 009°58'215.9
2017-Oct-17 12:00N 38°16' W 009°59'816.4
2017-Oct-17 11:30N 38°24' W 010°01'816.4
2017-Oct-17 11:00N 38°32' W 010°03'816.0
2017-Oct-17 10:31N 38°39' W 010°06'816.3
2017-Oct-17 10:00N 38°48' W 010°07'816.0
2017-Oct-17 09:31N 38°56' W 010°08'48814.2
2017-Oct-15 23:06N 46°48' W 007°21'116.3
2017-Oct-15 23:01N 46°50' W 007°21'916.0
2017-Oct-15 22:27N 46°59' W 007°19'715.6
2017-Oct-15 22:00N 47°05' W 007°18'815.7
2017-Oct-15 21:30N 47°13' W 007°17'816.1
2017-Oct-15 21:00N 47°21' W 007°15'1216.2
2017-Oct-15 20:15N 47°33' W 007°11'415.9
2017-Oct-15 19:59N 47°37' W 007°09'15316.0
2017-Oct-15 10:26N 50°09' W 006°41'715.9
2017-Oct-15 10:00N 50°16' W 006°38'3316.3
2017-Oct-15 07:59N 50°47' W 006°23'816.5
2017-Oct-15 07:30N 50°55' W 006°19'816.6
2017-Oct-15 07:00N 51°03' W 006°16'4915.8
2017-Oct-15 03:54N 51°49' W 005°53'614.7
2017-Oct-15 03:30N 51°55' W 005°50'714.5
2017-Oct-15 03:00N 52°02' W 005°46'714.7
2017-Oct-15 02:30N 52°09' W 005°42'714.9
2017-Oct-15 02:00N 52°16' W 005°38'815.5
2017-Oct-15 01:29N 52°23' W 005°33'7117.3
2017-Oct-14 21:22N 53°29' W 004°49'817.1
2017-Oct-14 20:55N 53°34' W 004°38'917.7
2017-Oct-14 20:23N 53°34' W 004°23'717.5
2017-Oct-14 19:59N 53°33' W 004°11'817.1
2017-Oct-14 19:30N 53°33' W 003°57'816.7
2017-Oct-14 19:00N 53°33' W 003°43'816.6
2017-Oct-14 18:30N 53°33' W 003°29'815.4
2017-Oct-14 18:00N 53°32' W 003°16'613.0
2017-Oct-14 17:30N 53°30' W 003°06'611.3
2017-Oct-14 17:00N 53°25' W 003°01'1 1.1
2017-Oct-14 16:21N 53°25' W 003°00'0 0.0
2017-Oct-14 16:00N 53°25' W 003°00'0 0.0
2017-Oct-14 15:30N 53°25' W 003°00'0 0.0
2017-Oct-14 14:57N 53°25' W 003°00'0 0.0
2017-Oct-14 14:30N 53°25' W 003°00'0 0.0
2017-Oct-14 14:00N 53°25' W 003°00'0 0.0
2017-Oct-14 13:30N 53°25' W 003°00'0 0.0
2017-Oct-14 13:00N 53°25' W 003°00'0 0.0
2017-Oct-14 12:24N 53°25' W 003°00'0 0.0
2017-Oct-14 12:00N 53°25' W 003°00'0 0.0
2017-Oct-14 11:27N 53°25' W 003°00'0 0.0
2017-Oct-14 11:00N 53°25' W 003°00'0 0.0
2017-Oct-14 10:30N 53°25' W 003°00'0 0.0
2017-Oct-14 10:00N 53°25' W 003°00'0 0.0
2017-Oct-14 09:30N 53°25' W 003°00'0 0.0
2017-Oct-14 09:00N 53°25' W 003°00'0 0.0
2017-Oct-14 08:30N 53°25' W 003°00'0 0.0
2017-Oct-14 08:00N 53°25' W 003°00'0 0.0
2017-Oct-14 07:30N 53°25' W 003°00'0 0.0
2017-Oct-14 07:00N 53°25' W 003°00'0 0.0
2017-Oct-14 06:30N 53°25' W 003°00'0 0.0
2017-Oct-14 06:00N 53°25' W 003°00'0 0.0
2017-Oct-14 05:30N 53°25' W 003°00'0 0.0
2017-Oct-14 05:00N 53°25' W 003°00'0 0.5
2017-Oct-14 04:30N 53°24' W 003°00'510.1
2017-Oct-14 04:00N 53°29' W 003°04'510.7
2017-Oct-14 03:31N 53°31' W 003°12'510.2
2017-Oct-14 03:00N 53°31' W 003°21'714.2
2017-Oct-14 02:30N 53°31' W 003°33'816.7
2017-Oct-14 02:00N 53°31' W 003°47'918.0
2017-Oct-14 01:30N 53°30' W 004°02'9614.4
2017-Oct-13 18:51N 52°12' W 005°33'9713.5
2017-Oct-13 11:42N 50°40' W 006°20'712.4
2017-Oct-13 11:11N 50°34' W 006°23'3813.1
2017-Oct-13 08:17N 49°57' W 006°39'513.4
2017-Oct-13 07:53N 49°52' W 006°42'52213.9
2017-Oct-11 18:21N 41°18' W 008°52'616.7
2017-Oct-11 18:00N 41°13' W 008°49'611.2
2017-Oct-11 17:31N 41°11' W 008°42'0 0.9
2017-Oct-11 16:58N 41°11' W 008°42'152 9.0
2017-Oct-11 00:00N 39°11' W 010°44'713.5
2017-Oct-10 23:30N 39°05' W 010°44'713.1
2017-Oct-10 23:00N 38°59' W 010°48'713.2
2017-Oct-10 22:30N 38°54' W 010°53'713.6
2017-Oct-10 22:00N 38°48' W 010°58'713.9
2017-Oct-10 21:31N 38°43' W 011°04'815.8
2017-Oct-10 21:00N 38°36' W 011°10'917.3
2017-Oct-10 20:30N 38°29' W 011°16'917.3
2017-Oct-10 20:00N 38°22' W 011°23'917.1
2017-Oct-10 19:30N 38°15' W 011°29'817.0
2017-Oct-10 19:00N 38°09' W 011°36'917.3
2017-Oct-10 18:30N 38°02' W 011°42'817.0
2017-Oct-10 18:00N 37°55' W 011°48'816.5
2017-Oct-10 17:30N 37°48' W 011°55'816.5
2017-Oct-10 17:00N 37°41' W 012°01'816.5
2017-Oct-10 16:30N 37°35' W 012°07'816.1
2017-Oct-10 16:00N 37°28' W 012°13'815.9
2017-Oct-10 15:30N 37°22' W 012°19'816.0
2017-Oct-10 15:00N 37°15' W 012°25'1616.5
2017-Oct-10 14:00N 37°02' W 012°37'816.4
2017-Oct-10 13:30N 36°56' W 012°43'816.0
2017-Oct-10 13:00N 36°49' W 012°49'815.9
2017-Oct-10 12:30N 36°43' W 012°55'816.3
2017-Oct-10 12:00N 36°36' W 013°01'816.2
2017-Oct-10 11:30N 36°30' W 013°07'815.9
2017-Oct-10 11:00N 36°23' W 013°13'816.1
2017-Oct-10 10:30N 36°17' W 013°19'816.0
2017-Oct-10 10:00N 36°10' W 013°25'816.0
2017-Oct-10 09:30N 36°04' W 013°31'816.0
2017-Oct-10 09:00N 35°57' W 013°37'816.4
2017-Oct-10 08:30N 35°51' W 013°42'815.6
2017-Oct-10 08:00N 35°44' W 013°48'714.5
2017-Oct-10 07:30N 35°39' W 013°53'815.3
2017-Oct-10 07:01N 35°32' W 013°59'816.6
2017-Oct-10 06:30N 35°26' W 014°05'816.8
2017-Oct-10 06:01N 35°19' W 014°11'816.9
2017-Oct-10 05:31N 35°12' W 014°17'917.1
2017-Oct-10 04:58N 35°05' W 014°24'1117.0
2017-Oct-10 04:18N 34°55' W 014°32'  

Dump ship's entire track history